sensor_id;sensor_type;location;lat;lon;timestamp;P1;durP1;ratioP1;P2;durP2;ratioP2
22849;SDS011;11591;44.792;10.358;2023-02-10T00:01:08;23.42;;;9.73;;
22849;SDS011;11591;44.792;10.358;2023-02-10T00:03:36;26.20;;;10.30;;
22849;SDS011;11591;44.792;10.358;2023-02-10T00:06:02;28.27;;;10.75;;
22849;SDS011;11591;44.792;10.358;2023-02-10T00:08:29;30.45;;;11.18;;
22849;SDS011;11591;44.792;10.358;2023-02-10T00:10:59;25.27;;;10.43;;
22849;SDS011;11591;44.792;10.358;2023-02-10T00:13:27;27.63;;;10.43;;
22849;SDS011;11591;44.792;10.358;2023-02-10T00:15:53;25.08;;;10.45;;
22849;SDS011;11591;44.792;10.358;2023-02-10T00:18:21;23.48;;;9.82;;
22849;SDS011;11591;44.792;10.358;2023-02-10T00:20:47;27.52;;;10.27;;
22849;SDS011;11591;44.792;10.358;2023-02-10T00:23:13;30.70;;;10.70;;
22849;SDS011;11591;44.792;10.358;2023-02-10T00:25:39;24.13;;;10.25;;
22849;SDS011;11591;44.792;10.358;2023-02-10T00:28:05;28.20;;;10.85;;
22849;SDS011;11591;44.792;10.358;2023-02-10T00:30:32;24.52;;;9.68;;
22849;SDS011;11591;44.792;10.358;2023-02-10T00:32:58;23.70;;;10.20;;
22849;SDS011;11591;44.792;10.358;2023-02-10T00:35:25;23.17;;;9.85;;
22849;SDS011;11591;44.792;10.358;2023-02-10T00:37:51;25.25;;;10.32;;
22849;SDS011;11591;44.792;10.358;2023-02-10T00:40:18;23.65;;;9.52;;
22849;SDS011;11591;44.792;10.358;2023-02-10T00:42:44;30.38;;;10.35;;
22849;SDS011;11591;44.792;10.358;2023-02-10T00:45:10;24.17;;;11.00;;
22849;SDS011;11591;44.792;10.358;2023-02-10T00:47:36;27.98;;;11.13;;
22849;SDS011;11591;44.792;10.358;2023-02-10T00:50:03;27.42;;;11.10;;
22849;SDS011;11591;44.792;10.358;2023-02-10T00:52:29;31.83;;;11.02;;
22849;SDS011;11591;44.792;10.358;2023-02-10T00:54:55;27.50;;;11.30;;
22849;SDS011;11591;44.792;10.358;2023-02-10T00:57:21;30.70;;;10.75;;
22849;SDS011;11591;44.792;10.358;2023-02-10T00:59:48;29.95;;;11.18;;
22849;SDS011;11591;44.792;10.358;2023-02-10T01:02:14;26.85;;;11.25;;
22849;SDS011;11591;44.792;10.358;2023-02-10T01:04:40;29.77;;;11.02;;
22849;SDS011;11591;44.792;10.358;2023-02-10T01:07:06;32.45;;;11.02;;
22849;SDS011;11591;44.792;10.358;2023-02-10T01:09:31;27.85;;;11.48;;
22849;SDS011;11591;44.792;10.358;2023-02-10T01:11:57;28.13;;;11.48;;
22849;SDS011;11591;44.792;10.358;2023-02-10T01:14:23;32.60;;;10.65;;
22849;SDS011;11591;44.792;10.358;2023-02-10T01:16:50;29.77;;;11.27;;
22849;SDS011;11591;44.792;10.358;2023-02-10T01:19:16;34.78;;;14.10;;
22849;SDS011;11591;44.792;10.358;2023-02-10T01:21:41;26.15;;;11.25;;
22849;SDS011;11591;44.792;10.358;2023-02-10T01:24:07;26.48;;;10.75;;
22849;SDS011;11591;44.792;10.358;2023-02-10T01:26:34;27.33;;;10.68;;
22849;SDS011;11591;44.792;10.358;2023-02-10T01:29:00;28.80;;;11.75;;
22849;SDS011;11591;44.792;10.358;2023-02-10T01:31:25;31.60;;;11.27;;
22849;SDS011;11591;44.792;10.358;2023-02-10T01:33:53;29.20;;;11.23;;
22849;SDS011;11591;44.792;10.358;2023-02-10T01:36:20;28.58;;;10.95;;
22849;SDS011;11591;44.792;10.358;2023-02-10T01:38:48;23.88;;;10.10;;
22849;SDS011;11591;44.792;10.358;2023-02-10T01:41:16;26.05;;;10.88;;
22849;SDS011;11591;44.792;10.358;2023-02-10T01:46:25;37.75;;;10.88;;
22849;SDS011;11591;44.792;10.358;2023-02-10T01:48:52;28.27;;;10.20;;
22849;SDS011;11591;44.792;10.358;2023-02-10T01:51:22;30.07;;;11.00;;
22849;SDS011;11591;44.792;10.358;2023-02-10T01:53:53;25.70;;;10.50;;
22849;SDS011;11591;44.792;10.358;2023-02-10T01:56:20;25.98;;;11.02;;
22849;SDS011;11591;44.792;10.358;2023-02-10T01:58:45;26.80;;;9.93;;
22849;SDS011;11591;44.792;10.358;2023-02-10T02:01:12;26.93;;;11.00;;
22849;SDS011;11591;44.792;10.358;2023-02-10T02:03:38;27.13;;;10.35;;
22849;SDS011;11591;44.792;10.358;2023-02-10T02:06:07;23.30;;;10.30;;
22849;SDS011;11591;44.792;10.358;2023-02-10T02:08:33;27.30;;;10.53;;
22849;SDS011;11591;44.792;10.358;2023-02-10T02:14:15;30.77;;;11.02;;
22849;SDS011;11591;44.792;10.358;2023-02-10T02:16:43;32.20;;;11.00;;
22849;SDS011;11591;44.792;10.358;2023-02-10T02:27:42;27.92;;;10.65;;
22849;SDS011;11591;44.792;10.358;2023-02-10T02:30:43;30.55;;;10.27;;
22849;SDS011;11591;44.792;10.358;2023-02-10T02:33:15;24.85;;;9.98;;
22849;SDS011;11591;44.792;10.358;2023-02-10T02:35:52;29.10;;;10.73;;
22849;SDS011;11591;44.792;10.358;2023-02-10T02:38:25;29.02;;;10.68;;
22849;SDS011;11591;44.792;10.358;2023-02-10T02:40:51;31.08;;;10.60;;
22849;SDS011;11591;44.792;10.358;2023-02-10T02:43:16;32.00;;;12.02;;
22849;SDS011;11591;44.792;10.358;2023-02-10T02:54:16;28.45;;;11.35;;
22849;SDS011;11591;44.792;10.358;2023-02-10T02:59:47;32.90;;;11.55;;
22849;SDS011;11591;44.792;10.358;2023-02-10T03:02:17;34.95;;;11.82;;
22849;SDS011;11591;44.792;10.358;2023-02-10T03:04:44;29.35;;;11.85;;
22849;SDS011;11591;44.792;10.358;2023-02-10T03:07:11;32.58;;;11.75;;
22849;SDS011;11591;44.792;10.358;2023-02-10T03:09:37;34.20;;;11.88;;
22849;SDS011;11591;44.792;10.358;2023-02-10T03:12:03;27.67;;;11.20;;
22849;SDS011;11591;44.792;10.358;2023-02-10T03:14:29;34.57;;;12.60;;
22849;SDS011;11591;44.792;10.358;2023-02-10T03:16:55;31.90;;;12.23;;
22849;SDS011;11591;44.792;10.358;2023-02-10T03:19:21;32.73;;;11.47;;
22849;SDS011;11591;44.792;10.358;2023-02-10T03:21:47;28.90;;;10.97;;
22849;SDS011;11591;44.792;10.358;2023-02-10T03:24:13;30.77;;;11.15;;
22849;SDS011;11591;44.792;10.358;2023-02-10T03:26:38;34.60;;;12.57;;
22849;SDS011;11591;44.792;10.358;2023-02-10T03:29:05;35.47;;;12.50;;
22849;SDS011;11591;44.792;10.358;2023-02-10T03:31:31;32.00;;;12.10;;
22849;SDS011;11591;44.792;10.358;2023-02-10T03:33:57;32.43;;;11.87;;
22849;SDS011;11591;44.792;10.358;2023-02-10T03:36:23;32.23;;;12.17;;
22849;SDS011;11591;44.792;10.358;2023-02-10T03:38:49;35.27;;;12.73;;
22849;SDS011;11591;44.792;10.358;2023-02-10T03:41:14;33.90;;;11.50;;
22849;SDS011;11591;44.792;10.358;2023-02-10T03:43:40;30.67;;;12.00;;
22849;SDS011;11591;44.792;10.358;2023-02-10T03:46:06;29.03;;;11.80;;
22849;SDS011;11591;44.792;10.358;2023-02-10T03:48:34;34.40;;;12.03;;
22849;SDS011;11591;44.792;10.358;2023-02-10T03:51:00;33.43;;;12.00;;
22849;SDS011;11591;44.792;10.358;2023-02-10T03:53:28;30.83;;;11.70;;
22849;SDS011;11591;44.792;10.358;2023-02-10T03:55:54;31.60;;;11.17;;
22849;SDS011;11591;44.792;10.358;2023-02-10T03:58:20;30.57;;;11.60;;
22849;SDS011;11591;44.792;10.358;2023-02-10T04:00:46;34.37;;;11.93;;
22849;SDS011;11591;44.792;10.358;2023-02-10T04:03:12;32.53;;;11.63;;
22849;SDS011;11591;44.792;10.358;2023-02-10T04:05:38;30.30;;;10.90;;
22849;SDS011;11591;44.792;10.358;2023-02-10T04:08:04;33.90;;;12.47;;
22849;SDS011;11591;44.792;10.358;2023-02-10T04:10:30;36.13;;;12.33;;
22849;SDS011;11591;44.792;10.358;2023-02-10T04:12:56;31.17;;;11.70;;
22849;SDS011;11591;44.792;10.358;2023-02-10T04:15:22;31.90;;;12.90;;
22849;SDS011;11591;44.792;10.358;2023-02-10T04:17:48;43.90;;;16.00;;
22849;SDS011;11591;44.792;10.358;2023-02-10T04:20:14;33.87;;;12.07;;
22849;SDS011;11591;44.792;10.358;2023-02-10T04:22:40;32.57;;;11.00;;
22849;SDS011;11591;44.792;10.358;2023-02-10T04:25:06;34.47;;;12.52;;
22849;SDS011;11591;44.792;10.358;2023-02-10T04:27:32;36.17;;;12.80;;
22849;SDS011;11591;44.792;10.358;2023-02-10T04:29:58;31.30;;;11.73;;
22849;SDS011;11591;44.792;10.358;2023-02-10T04:32:24;35.47;;;12.87;;
22849;SDS011;11591;44.792;10.358;2023-02-10T04:34:49;32.00;;;12.10;;
22849;SDS011;11591;44.792;10.358;2023-02-10T04:37:15;33.20;;;11.70;;
22849;SDS011;11591;44.792;10.358;2023-02-10T04:39:41;36.13;;;12.43;;
22849;SDS011;11591;44.792;10.358;2023-02-10T04:42:07;31.47;;;12.33;;
22849;SDS011;11591;44.792;10.358;2023-02-10T04:44:33;33.17;;;11.80;;
22849;SDS011;11591;44.792;10.358;2023-02-10T04:46:59;29.10;;;11.67;;
22849;SDS011;11591;44.792;10.358;2023-02-10T04:49:25;35.47;;;12.10;;
22849;SDS011;11591;44.792;10.358;2023-02-10T04:51:52;33.03;;;12.03;;
22849;SDS011;11591;44.792;10.358;2023-02-10T04:54:18;35.10;;;12.53;;
22849;SDS011;11591;44.792;10.358;2023-02-10T04:56:44;30.50;;;11.57;;
22849;SDS011;11591;44.792;10.358;2023-02-10T04:59:10;27.80;;;10.30;;
22849;SDS011;11591;44.792;10.358;2023-02-10T05:01:36;31.20;;;11.65;;
22849;SDS011;11591;44.792;10.358;2023-02-10T05:04:01;30.50;;;11.60;;
22849;SDS011;11591;44.792;10.358;2023-02-10T05:06:27;36.33;;;11.67;;
22849;SDS011;11591;44.792;10.358;2023-02-10T05:08:53;29.63;;;11.50;;
22849;SDS011;11591;44.792;10.358;2023-02-10T05:11:19;36.90;;;11.53;;
22849;SDS011;11591;44.792;10.358;2023-02-10T05:13:44;33.60;;;11.43;;
22849;SDS011;11591;44.792;10.358;2023-02-10T05:16:11;29.53;;;11.43;;
22849;SDS011;11591;44.792;10.358;2023-02-10T05:18:38;31.37;;;12.10;;
22849;SDS011;11591;44.792;10.358;2023-02-10T05:21:07;33.57;;;12.07;;
22849;SDS011;11591;44.792;10.358;2023-02-10T05:23:34;33.80;;;12.93;;
22849;SDS011;11591;44.792;10.358;2023-02-10T05:26:01;30.67;;;11.33;;
22849;SDS011;11591;44.792;10.358;2023-02-10T05:28:28;33.00;;;11.43;;
22849;SDS011;11591;44.792;10.358;2023-02-10T05:30:53;32.77;;;11.27;;
22849;SDS011;11591;44.792;10.358;2023-02-10T05:33:19;28.63;;;10.80;;
22849;SDS011;11591;44.792;10.358;2023-02-10T05:35:45;33.20;;;11.73;;
22849;SDS011;11591;44.792;10.358;2023-02-10T05:38:11;31.33;;;11.97;;
22849;SDS011;11591;44.792;10.358;2023-02-10T05:40:37;35.93;;;11.73;;
22849;SDS011;11591;44.792;10.358;2023-02-10T05:43:03;30.23;;;10.40;;
22849;SDS011;11591;44.792;10.358;2023-02-10T05:45:29;34.50;;;12.47;;
22849;SDS011;11591;44.792;10.358;2023-02-10T05:47:55;29.10;;;11.33;;
22849;SDS011;11591;44.792;10.358;2023-02-10T05:50:20;33.83;;;11.70;;
22849;SDS011;11591;44.792;10.358;2023-02-10T05:52:46;30.40;;;11.73;;
22849;SDS011;11591;44.792;10.358;2023-02-10T05:55:12;32.40;;;11.23;;
22849;SDS011;11591;44.792;10.358;2023-02-10T05:57:38;32.80;;;11.17;;
22849;SDS011;11591;44.792;10.358;2023-02-10T06:00:04;27.40;;;11.80;;
22849;SDS011;11591;44.792;10.358;2023-02-10T06:02:37;31.70;;;11.57;;
22849;SDS011;11591;44.792;10.358;2023-02-10T06:05:03;29.07;;;11.03;;
22849;SDS011;11591;44.792;10.358;2023-02-10T06:07:29;28.13;;;10.93;;
22849;SDS011;11591;44.792;10.358;2023-02-10T06:09:55;33.47;;;11.97;;
22849;SDS011;11591;44.792;10.358;2023-02-10T06:12:21;36.63;;;11.53;;
22849;SDS011;11591;44.792;10.358;2023-02-10T06:14:46;37.33;;;12.70;;
22849;SDS011;11591;44.792;10.358;2023-02-10T06:17:12;31.73;;;11.70;;
22849;SDS011;11591;44.792;10.358;2023-02-10T06:19:38;33.67;;;11.07;;
22849;SDS011;11591;44.792;10.358;2023-02-10T06:22:05;40.57;;;12.00;;
22849;SDS011;11591;44.792;10.358;2023-02-10T06:24:32;28.80;;;11.57;;
22849;SDS011;11591;44.792;10.358;2023-02-10T06:26:58;31.70;;;12.07;;
22849;SDS011;11591;44.792;10.358;2023-02-10T06:29:24;44.73;;;12.17;;
22849;SDS011;11591;44.792;10.358;2023-02-10T06:31:50;33.10;;;11.93;;
22849;SDS011;11591;44.792;10.358;2023-02-10T06:34:16;29.90;;;10.93;;
22849;SDS011;11591;44.792;10.358;2023-02-10T06:36:42;31.37;;;11.63;;
22849;SDS011;11591;44.792;10.358;2023-02-10T06:39:08;33.63;;;12.20;;
22849;SDS011;11591;44.792;10.358;2023-02-10T06:41:33;30.47;;;11.63;;
22849;SDS011;11591;44.792;10.358;2023-02-10T06:43:59;34.10;;;11.80;;
22849;SDS011;11591;44.792;10.358;2023-02-10T06:46:25;39.40;;;11.47;;
22849;SDS011;11591;44.792;10.358;2023-02-10T06:48:51;34.87;;;11.03;;
22849;SDS011;11591;44.792;10.358;2023-02-10T06:51:17;35.67;;;13.63;;
22849;SDS011;11591;44.792;10.358;2023-02-10T06:53:43;34.40;;;12.07;;
22849;SDS011;11591;44.792;10.358;2023-02-10T06:56:10;32.40;;;12.07;;
22849;SDS011;11591;44.792;10.358;2023-02-10T06:58:36;31.83;;;11.43;;
22849;SDS011;11591;44.792;10.358;2023-02-10T07:01:08;31.20;;;12.10;;
22849;SDS011;11591;44.792;10.358;2023-02-10T07:03:35;31.02;;;11.63;;
22849;SDS011;11591;44.792;10.358;2023-02-10T07:06:02;29.87;;;11.53;;
22849;SDS011;11591;44.792;10.358;2023-02-10T07:08:28;31.60;;;11.43;;
22849;SDS011;11591;44.792;10.358;2023-02-10T07:10:54;33.03;;;12.45;;
22849;SDS011;11591;44.792;10.358;2023-02-10T07:13:20;26.30;;;11.03;;
22849;SDS011;11591;44.792;10.358;2023-02-10T07:15:46;34.37;;;12.43;;
22849;SDS011;11591;44.792;10.358;2023-02-10T07:18:11;30.70;;;11.50;;
22849;SDS011;11591;44.792;10.358;2023-02-10T07:20:37;32.30;;;12.13;;
22849;SDS011;11591;44.792;10.358;2023-02-10T07:23:03;30.97;;;11.50;;
22849;SDS011;11591;44.792;10.358;2023-02-10T07:25:29;31.88;;;11.98;;
22849;SDS011;11591;44.792;10.358;2023-02-10T07:27:55;30.45;;;12.50;;
22849;SDS011;11591;44.792;10.358;2023-02-10T07:30:20;30.73;;;11.63;;
22849;SDS011;11591;44.792;10.358;2023-02-10T07:32:47;34.30;;;12.00;;
22849;SDS011;11591;44.792;10.358;2023-02-10T07:35:14;38.45;;;12.15;;
22849;SDS011;11591;44.792;10.358;2023-02-10T07:37:40;31.90;;;12.07;;
22849;SDS011;11591;44.792;10.358;2023-02-10T07:40:07;37.15;;;12.63;;
22849;SDS011;11591;44.792;10.358;2023-02-10T07:42:33;31.65;;;12.05;;
22849;SDS011;11591;44.792;10.358;2023-02-10T07:45:25;30.45;;;11.85;;
22849;SDS011;11591;44.792;10.358;2023-02-10T07:47:59;31.38;;;11.52;;
22849;SDS011;11591;44.792;10.358;2023-02-10T07:50:25;30.40;;;11.52;;
22849;SDS011;11591;44.792;10.358;2023-02-10T07:52:51;28.70;;;11.25;;
22849;SDS011;11591;44.792;10.358;2023-02-10T07:55:18;32.22;;;12.45;;
22849;SDS011;11591;44.792;10.358;2023-02-10T07:57:43;36.38;;;13.35;;
22849;SDS011;11591;44.792;10.358;2023-02-10T08:00:10;41.65;;;14.55;;
22849;SDS011;11591;44.792;10.358;2023-02-10T08:02:40;34.78;;;13.27;;
22849;SDS011;11591;44.792;10.358;2023-02-10T08:05:06;39.47;;;14.25;;
22849;SDS011;11591;44.792;10.358;2023-02-10T08:07:32;38.20;;;14.23;;
22849;SDS011;11591;44.792;10.358;2023-02-10T08:09:58;39.40;;;14.63;;
22849;SDS011;11591;44.792;10.358;2023-02-10T08:12:24;41.83;;;13.95;;
22849;SDS011;11591;44.792;10.358;2023-02-10T08:14:50;37.55;;;13.70;;
22849;SDS011;11591;44.792;10.358;2023-02-10T08:17:16;32.85;;;12.35;;
22849;SDS011;11591;44.792;10.358;2023-02-10T08:19:41;35.05;;;13.60;;
22849;SDS011;11591;44.792;10.358;2023-02-10T08:22:07;34.58;;;13.50;;
22849;SDS011;11591;44.792;10.358;2023-02-10T08:24:34;31.73;;;12.32;;
22849;SDS011;11591;44.792;10.358;2023-02-10T08:26:59;33.50;;;12.43;;
22849;SDS011;11591;44.792;10.358;2023-02-10T08:29:25;34.58;;;12.95;;
22849;SDS011;11591;44.792;10.358;2023-02-10T08:31:51;30.77;;;12.52;;
22849;SDS011;11591;44.792;10.358;2023-02-10T08:34:19;29.20;;;12.07;;
22849;SDS011;11591;44.792;10.358;2023-02-10T08:36:46;30.40;;;12.40;;
22849;SDS011;11591;44.792;10.358;2023-02-10T08:39:13;31.90;;;12.93;;
22849;SDS011;11591;44.792;10.358;2023-02-10T08:41:39;30.23;;;11.85;;
22849;SDS011;11591;44.792;10.358;2023-02-10T08:44:06;30.13;;;12.23;;
22849;SDS011;11591;44.792;10.358;2023-02-10T08:46:32;28.70;;;11.07;;
22849;SDS011;11591;44.792;10.358;2023-02-10T08:48:58;36.88;;;12.80;;
22849;SDS011;11591;44.792;10.358;2023-02-10T08:51:26;35.08;;;12.43;;
22849;SDS011;11591;44.792;10.358;2023-02-10T08:53:52;33.40;;;11.55;;
22849;SDS011;11591;44.792;10.358;2023-02-10T08:56:21;34.72;;;13.00;;
22849;SDS011;11591;44.792;10.358;2023-02-10T08:58:47;31.98;;;12.00;;
22849;SDS011;11591;44.792;10.358;2023-02-10T09:01:20;34.83;;;12.25;;
22849;SDS011;11591;44.792;10.358;2023-02-10T09:03:47;36.25;;;12.48;;
22849;SDS011;11591;44.792;10.358;2023-02-10T09:08:44;28.70;;;12.32;;
22849;SDS011;11591;44.792;10.358;2023-02-10T09:11:12;32.10;;;12.75;;
22849;SDS011;11591;44.792;10.358;2023-02-10T09:13:41;30.48;;;12.40;;
22849;SDS011;11591;44.792;10.358;2023-02-10T09:16:07;36.85;;;13.38;;
22849;SDS011;11591;44.792;10.358;2023-02-10T09:18:33;30.17;;;11.63;;
22849;SDS011;11591;44.792;10.358;2023-02-10T09:21:00;33.63;;;13.25;;
22849;SDS011;11591;44.792;10.358;2023-02-10T09:23:26;36.78;;;13.75;;
22849;SDS011;11591;44.792;10.358;2023-02-10T09:25:53;35.42;;;13.20;;
22849;SDS011;11591;44.792;10.358;2023-02-10T09:28:20;33.92;;;12.75;;
22849;SDS011;11591;44.792;10.358;2023-02-10T09:30:47;35.53;;;12.68;;
22849;SDS011;11591;44.792;10.358;2023-02-10T09:33:13;34.65;;;13.60;;
22849;SDS011;11591;44.792;10.358;2023-02-10T09:35:39;35.08;;;14.20;;
22849;SDS011;11591;44.792;10.358;2023-02-10T09:38:06;34.67;;;13.30;;
22849;SDS011;11591;44.792;10.358;2023-02-10T09:40:33;33.38;;;12.48;;
22849;SDS011;11591;44.792;10.358;2023-02-10T09:43:18;28.88;;;13.23;;
22849;SDS011;11591;44.792;10.358;2023-02-10T09:46:09;33.90;;;12.15;;
22849;SDS011;11591;44.792;10.358;2023-02-10T09:54:35;32.83;;;12.75;;
22849;SDS011;11591;44.792;10.358;2023-02-10T09:57:03;36.40;;;13.38;;
22849;SDS011;11591;44.792;10.358;2023-02-10T09:59:32;35.78;;;12.85;;
22849;SDS011;11591;44.792;10.358;2023-02-10T10:02:03;35.63;;;12.38;;
22849;SDS011;11591;44.792;10.358;2023-02-10T10:04:39;31.33;;;11.70;;
22849;SDS011;11591;44.792;10.358;2023-02-10T10:07:17;30.38;;;12.10;;
22849;SDS011;11591;44.792;10.358;2023-02-10T10:10:04;33.10;;;12.65;;
22849;SDS011;11591;44.792;10.358;2023-02-10T10:12:48;33.38;;;12.90;;
22849;SDS011;11591;44.792;10.358;2023-02-10T10:15:15;38.47;;;14.18;;
22849;SDS011;11591;44.792;10.358;2023-02-10T10:24:00;31.25;;;12.70;;
22849;SDS011;11591;44.792;10.358;2023-02-10T10:26:45;38.70;;;14.00;;
22849;SDS011;11591;44.792;10.358;2023-02-10T10:32:32;31.73;;;12.90;;
22849;SDS011;11591;44.792;10.358;2023-02-10T10:35:16;36.70;;;12.55;;
22849;SDS011;11591;44.792;10.358;2023-02-10T10:37:46;38.13;;;14.15;;
22849;SDS011;11591;44.792;10.358;2023-02-10T10:40:17;37.38;;;14.90;;
22849;SDS011;11591;44.792;10.358;2023-02-10T10:42:52;34.88;;;14.10;;
22849;SDS011;11591;44.792;10.358;2023-02-10T10:47:58;40.70;;;15.15;;
22849;SDS011;11591;44.792;10.358;2023-02-10T10:50:29;43.90;;;15.02;;
22849;SDS011;11591;44.792;10.358;2023-02-10T10:52:55;41.72;;;16.45;;
22849;SDS011;11591;44.792;10.358;2023-02-10T10:55:24;42.00;;;15.73;;
22849;SDS011;11591;44.792;10.358;2023-02-10T10:57:56;45.85;;;16.25;;
22849;SDS011;11591;44.792;10.358;2023-02-10T11:00:25;46.47;;;16.35;;
22849;SDS011;11591;44.792;10.358;2023-02-10T11:02:59;43.35;;;16.42;;
22849;SDS011;11591;44.792;10.358;2023-02-10T11:05:31;41.72;;;15.77;;
22849;SDS011;11591;44.792;10.358;2023-02-10T11:08:00;47.03;;;15.90;;
22849;SDS011;11591;44.792;10.358;2023-02-10T11:13:04;41.30;;;17.05;;
22849;SDS011;11591;44.792;10.358;2023-02-10T11:17:59;39.85;;;15.52;;
22849;SDS011;11591;44.792;10.358;2023-02-10T11:20:27;40.15;;;15.63;;
22849;SDS011;11591;44.792;10.358;2023-02-10T11:22:59;40.83;;;16.25;;
22849;SDS011;11591;44.792;10.358;2023-02-10T11:25:34;43.97;;;17.13;;
22849;SDS011;11591;44.792;10.358;2023-02-10T11:28:02;49.95;;;16.98;;
22849;SDS011;11591;44.792;10.358;2023-02-10T11:30:31;45.15;;;16.70;;
22849;SDS011;11591;44.792;10.358;2023-02-10T11:33:00;41.50;;;17.17;;
22849;SDS011;11591;44.792;10.358;2023-02-10T11:35:27;40.03;;;15.77;;
22849;SDS011;11591;44.792;10.358;2023-02-10T11:37:57;43.15;;;18.08;;
22849;SDS011;11591;44.792;10.358;2023-02-10T11:40:46;42.17;;;17.38;;
22849;SDS011;11591;44.792;10.358;2023-02-10T11:43:16;42.70;;;16.92;;
22849;SDS011;11591;44.792;10.358;2023-02-10T11:45:53;45.80;;;17.55;;
22849;SDS011;11591;44.792;10.358;2023-02-10T11:48:29;45.85;;;17.52;;
22849;SDS011;11591;44.792;10.358;2023-02-10T11:53:28;44.22;;;18.15;;
22849;SDS011;11591;44.792;10.358;2023-02-10T12:04:12;49.38;;;18.52;;
22849;SDS011;11591;44.792;10.358;2023-02-10T12:18:09;55.65;;;19.73;;
22849;SDS011;11591;44.792;10.358;2023-02-10T12:23:34;46.72;;;18.60;;
22849;SDS011;11591;44.792;10.358;2023-02-10T12:39:32;42.97;;;19.27;;
22849;SDS011;11591;44.792;10.358;2023-02-10T12:45:16;48.90;;;19.63;;
22849;SDS011;11591;44.792;10.358;2023-02-10T12:53:35;42.75;;;19.48;;
22849;SDS011;11591;44.792;10.358;2023-02-10T12:56:05;41.65;;;18.67;;
22849;SDS011;11591;44.792;10.358;2023-02-10T12:58:42;44.67;;;18.05;;
22849;SDS011;11591;44.792;10.358;2023-02-10T13:01:29;47.45;;;18.65;;
22849;SDS011;11591;44.792;10.358;2023-02-10T13:04:43;46.55;;;18.25;;
22849;SDS011;11591;44.792;10.358;2023-02-10T13:06:59;41.75;;;17.27;;
22849;SDS011;11591;44.792;10.358;2023-02-10T13:14:30;44.13;;;18.02;;
22849;SDS011;11591;44.792;10.358;2023-02-10T13:16:59;45.67;;;17.65;;
22849;SDS011;11591;44.792;10.358;2023-02-10T13:19:39;47.60;;;18.30;;
22849;SDS011;11591;44.792;10.358;2023-02-10T13:25:14;41.80;;;17.98;;
22849;SDS011;11591;44.792;10.358;2023-02-10T13:28:11;41.10;;;16.98;;
22849;SDS011;11591;44.792;10.358;2023-02-10T13:30:50;45.33;;;17.10;;
22849;SDS011;11591;44.792;10.358;2023-02-10T13:34:13;46.47;;;17.52;;
22849;SDS011;11591;44.792;10.358;2023-02-10T13:36:40;44.28;;;17.83;;
22849;SDS011;11591;44.792;10.358;2023-02-10T13:41:46;43.08;;;16.90;;
22849;SDS011;11591;44.792;10.358;2023-02-10T13:46:43;39.90;;;17.35;;
22849;SDS011;11591;44.792;10.358;2023-02-10T13:49:15;41.55;;;17.38;;
22849;SDS011;11591;44.792;10.358;2023-02-10T13:51:43;45.20;;;17.80;;
22849;SDS011;11591;44.792;10.358;2023-02-10T13:54:28;44.22;;;17.98;;
22849;SDS011;11591;44.792;10.358;2023-02-10T13:56:56;44.05;;;17.63;;
22849;SDS011;11591;44.792;10.358;2023-02-10T13:59:24;43.03;;;18.80;;
22849;SDS011;11591;44.792;10.358;2023-02-10T14:02:11;45.67;;;19.02;;
22849;SDS011;11591;44.792;10.358;2023-02-10T14:04:40;44.50;;;20.67;;
22849;SDS011;11591;44.792;10.358;2023-02-10T14:10:02;42.72;;;19.98;;
22849;SDS011;11591;44.792;10.358;2023-02-10T14:18:38;41.50;;;19.25;;
22849;SDS011;11591;44.792;10.358;2023-02-10T14:21:06;39.45;;;19.55;;
22849;SDS011;11591;44.792;10.358;2023-02-10T14:23:41;38.47;;;18.35;;
22849;SDS011;11591;44.792;10.358;2023-02-10T14:26:15;46.38;;;20.42;;
22849;SDS011;11591;44.792;10.358;2023-02-10T14:29:00;36.83;;;17.88;;
22849;SDS011;11591;44.792;10.358;2023-02-10T14:31:28;39.53;;;18.95;;
22849;SDS011;11591;44.792;10.358;2023-02-10T14:33:58;38.17;;;18.58;;
22849;SDS011;11591;44.792;10.358;2023-02-10T14:36:27;39.22;;;18.77;;
22849;SDS011;11591;44.792;10.358;2023-02-10T14:38:55;41.20;;;19.25;;
22849;SDS011;11591;44.792;10.358;2023-02-10T14:41:22;40.90;;;19.35;;
22849;SDS011;11591;44.792;10.358;2023-02-10T14:43:50;37.80;;;19.25;;
22849;SDS011;11591;44.792;10.358;2023-02-10T14:46:28;33.53;;;17.90;;
22849;SDS011;11591;44.792;10.358;2023-02-10T14:49:09;42.80;;;20.10;;
22849;SDS011;11591;44.792;10.358;2023-02-10T14:51:40;36.58;;;18.80;;
22849;SDS011;11591;44.792;10.358;2023-02-10T14:54:35;43.28;;;20.80;;
22849;SDS011;11591;44.792;10.358;2023-02-10T14:56:56;39.35;;;19.73;;
22849;SDS011;11591;44.792;10.358;2023-02-10T14:59:24;42.17;;;20.05;;
22849;SDS011;11591;44.792;10.358;2023-02-10T15:02:00;39.45;;;19.17;;
22849;SDS011;11591;44.792;10.358;2023-02-10T15:04:33;42.25;;;20.10;;
22849;SDS011;11591;44.792;10.358;2023-02-10T15:07:00;37.28;;;18.20;;
22849;SDS011;11591;44.792;10.358;2023-02-10T15:09:35;37.05;;;18.33;;
22849;SDS011;11591;44.792;10.358;2023-02-10T15:12:03;35.13;;;18.52;;
22849;SDS011;11591;44.792;10.358;2023-02-10T15:14:48;36.72;;;18.40;;
22849;SDS011;11591;44.792;10.358;2023-02-10T15:18:04;40.47;;;20.15;;
22849;SDS011;11591;44.792;10.358;2023-02-10T15:22:43;40.00;;;20.10;;
22849;SDS011;11591;44.792;10.358;2023-02-10T15:33:22;36.90;;;18.05;;
22849;SDS011;11591;44.792;10.358;2023-02-10T15:41:29;37.30;;;18.15;;
22849;SDS011;11591;44.792;10.358;2023-02-10T15:44:01;39.38;;;19.15;;
22849;SDS011;11591;44.792;10.358;2023-02-10T15:46:43;38.88;;;20.10;;
22849;SDS011;11591;44.792;10.358;2023-02-10T15:49:18;45.25;;;19.20;;
22849;SDS011;11591;44.792;10.358;2023-02-10T15:54:14;41.58;;;19.77;;
22849;SDS011;11591;44.792;10.358;2023-02-10T15:57:01;41.58;;;19.35;;
22849;SDS011;11591;44.792;10.358;2023-02-10T15:59:30;43.90;;;20.05;;
22849;SDS011;11591;44.792;10.358;2023-02-10T16:01:57;42.75;;;19.60;;
22849;SDS011;11591;44.792;10.358;2023-02-10T16:04:25;38.92;;;18.75;;
22849;SDS011;11591;44.792;10.358;2023-02-10T16:06:54;41.17;;;19.08;;
22849;SDS011;11591;44.792;10.358;2023-02-10T16:09:20;40.00;;;20.02;;
22849;SDS011;11591;44.792;10.358;2023-02-10T16:11:46;43.58;;;19.73;;
22849;SDS011;11591;44.792;10.358;2023-02-10T16:14:12;42.65;;;19.85;;
22849;SDS011;11591;44.792;10.358;2023-02-10T16:16:40;41.60;;;19.42;;
22849;SDS011;11591;44.792;10.358;2023-02-10T16:19:12;48.85;;;20.73;;
22849;SDS011;11591;44.792;10.358;2023-02-10T16:21:39;45.67;;;22.05;;
22849;SDS011;11591;44.792;10.358;2023-02-10T16:24:07;44.70;;;20.85;;
22849;SDS011;11591;44.792;10.358;2023-02-10T16:26:39;42.42;;;18.15;;
22849;SDS011;11591;44.792;10.358;2023-02-10T16:29:05;46.80;;;21.25;;
22849;SDS011;11591;44.792;10.358;2023-02-10T16:31:34;47.03;;;20.67;;
22849;SDS011;11591;44.792;10.358;2023-02-10T16:34:00;44.63;;;19.73;;
22849;SDS011;11591;44.792;10.358;2023-02-10T16:36:26;44.70;;;20.58;;
22849;SDS011;11591;44.792;10.358;2023-02-10T16:38:52;45.95;;;19.80;;